createdAt,value
2023-01-17T00:04:36.662Z,18.8
2023-01-17T00:20:10.989Z,18.9
2023-01-17T00:35:45.826Z,19
2023-01-17T00:51:20.391Z,19.1
2023-01-17T01:06:55.004Z,19.2
2023-01-17T01:22:29.617Z,19.2
2023-01-17T01:38:04.490Z,19.2
2023-01-17T01:53:39.048Z,19.2
2023-01-17T02:09:13.642Z,19.2
2023-01-17T02:24:48.229Z,19.2
2023-01-17T02:40:22.808Z,19
2023-01-17T02:55:57.364Z,18.9
2023-01-17T03:11:31.962Z,18.8
2023-01-17T03:27:06.511Z,18.7
2023-01-17T03:42:41.062Z,18.6
2023-01-17T03:58:15.629Z,18.5
2023-01-17T04:13:50.194Z,18.5
2023-01-17T04:29:24.797Z,18.5
2023-01-17T04:44:59.361Z,18.4
2023-01-17T05:00:33.935Z,18.4
2023-01-17T05:16:09.034Z,18.3
2023-01-17T05:31:43.853Z,18.3
2023-01-17T05:47:18.426Z,18.3
2023-01-17T06:02:53.269Z,18.5
2023-01-17T06:18:27.604Z,18.6
2023-01-17T06:34:02.184Z,18.7
2023-01-17T06:49:36.760Z,18.7
2023-01-17T07:05:11.338Z,18.8
2023-01-17T07:20:45.941Z,18.8
2023-01-17T07:36:20.510Z,18.8
2023-01-17T07:51:55.128Z,18.8
2023-01-17T08:07:29.737Z,18.9
2023-01-17T08:23:04.356Z,18.9
2023-01-17T08:38:38.931Z,18.9
2023-01-17T08:54:13.617Z,19
2023-01-17T09:09:48.191Z,19
2023-01-17T09:25:22.789Z,19
2023-01-17T09:40:57.553Z,19.1
2023-01-17T09:56:32.153Z,19.1
2023-01-17T10:12:06.795Z,19.1
2023-01-17T10:27:41.406Z,19.2
2023-01-17T10:43:16.313Z,19.2
2023-01-17T10:58:50.962Z,19.3
2023-01-17T11:14:25.544Z,19.3
2023-01-17T11:30:02.233Z,19.4
2023-01-17T11:45:36.855Z,19.4
2023-01-17T12:01:11.692Z,19.5
2023-01-17T12:16:46.397Z,19.5
2023-01-17T12:32:21.205Z,19.4
2023-01-17T12:47:55.883Z,19.4
2023-01-17T13:03:30.501Z,19.4
2023-01-17T13:19:05.108Z,19.3
2023-01-17T13:34:39.731Z,19.3
2023-01-17T13:50:14.425Z,19.3
2023-01-17T14:05:49.125Z,19.3
2023-01-17T14:21:23.710Z,19.2
2023-01-17T14:36:58.259Z,19.2
2023-01-17T14:52:32.848Z,19.2
2023-01-17T15:08:07.490Z,19.2
2023-01-17T15:23:42.051Z,19.2
2023-01-17T15:39:16.642Z,19.1
2023-01-17T15:54:51.196Z,19.2
2023-01-17T16:10:25.799Z,19.4
2023-01-17T16:26:00.389Z,19.5
2023-01-17T16:41:35.011Z,19.7
2023-01-17T16:57:09.579Z,19.7
2023-01-17T17:12:44.181Z,19.8
2023-01-17T17:28:19.144Z,19.9
2023-01-17T17:43:54.049Z,20.1
2023-01-17T17:59:28.642Z,20.1
2023-01-17T18:15:03.287Z,20.1
2023-01-17T18:30:38.007Z,20.2
2023-01-17T18:46:12.728Z,20.2
2023-01-17T19:01:48.055Z,20.3
2023-01-17T19:17:22.673Z,20.3
2023-01-17T19:32:57.231Z,20.3
2023-01-17T19:48:31.792Z,19.9
2023-01-17T20:04:06.439Z,19.3
2023-01-17T20:19:41.033Z,19.5
2023-01-17T20:35:15.622Z,19.8
2023-01-17T20:50:50.199Z,20
2023-01-17T21:06:24.816Z,20.1
2023-01-17T21:22:02.274Z,20.3
2023-01-17T21:37:36.830Z,20
2023-01-17T21:53:13.876Z,11.7
2023-01-17T22:08:48.422Z,7.8
2023-01-17T22:24:22.831Z,5.5
2023-01-17T22:39:57.203Z,4.3
2023-01-17T22:55:31.624Z,3.5
2023-01-17T23:11:06.015Z,3.3
2023-01-17T23:26:40.377Z,3.1
2023-01-17T23:42:14.710Z,3
2023-01-17T23:57:49.123Z,3
